Time;durP1;ratioP1;P1;durP2;ratioP2;P2;SDS_P1;SDS_P2;PMS_P1;PMS_P2;Temp;Humidity;BMP_temperature;BMP_pressure;BME280_temperature;BME280_humidity;BME280_pressure;Samples;Min_cycle;Max_cycle;Signal;HPM_P1;HPM_P2
2021/11/18 00:00:13;;;;;;;47.88;25.08;;;;;;;7.88;71.81;100455.91;5046582;28;20044;-47
2021/11/18 00:02:39;;;;;;;50.30;26.30;;;;;;;7.72;72.79;100447.97;5046455;28;20071;-47
2021/11/18 00:05:06;;;;;;;49.75;25.48;;;;;;;7.79;72.93;100449.78;5048171;28;20369;-50
2021/11/18 00:07:31;;;;;;;46.00;25.70;;;;;;;8.16;71.65;100448.34;5047951;28;20100;-49
2021/11/18 00:09:56;;;;;;;52.35;26.60;;;;;;;8.36;70.18;100451.44;5048443;28;20528;-48
2021/11/18 00:12:23;;;;;;;53.10;27.35;;;;;;;8.23;71.46;100454.63;5048237;28;20086;-47
2021/11/18 00:14:48;;;;;;;54.00;27.52;;;;;;;8.22;71.75;100460.94;5048623;28;20032;-47
2021/11/18 00:17:14;;;;;;;54.15;27.85;;;;;;;8.14;71.81;100454.84;5046942;28;20052;-48
2021/11/18 00:19:39;;;;;;;55.13;28.63;;;;;;;7.98;72.56;100453.06;5048259;28;20036;-49
2021/11/18 00:22:05;;;;;;;54.13;27.48;;;;;;;7.77;73.54;100459.72;5048287;28;20055;-48
2021/11/18 00:24:30;;;;;;;53.08;27.83;;;;;;;7.94;72.96;100457.03;5048342;28;20032;-48
2021/11/18 00:26:56;;;;;;;52.05;26.95;;;;;;;8.01;72.51;100460.66;5048395;28;20021;-49
2021/11/18 00:29:22;;;;;;;51.78;27.05;;;;;;;7.84;73.49;100459.84;5048362;28;20457;-46
2021/11/18 00:31:47;;;;;;;49.50;27.02;;;;;;;7.73;74.19;100455.75;5048321;28;20060;-49
2021/11/18 00:34:13;;;;;;;56.92;27.23;;;;;;;7.55;73.49;100426.78;5048237;28;20446;-47
2021/11/18 00:36:39;;;;;;;50.95;27.17;;;;;;;7.67;74.12;100461.69;5048206;28;20032;-48
2021/11/18 00:39:05;;;;;;;50.70;26.45;;;;;;;7.59;74.26;100462.53;5048294;28;20029;-48
2021/11/18 00:41:31;;;;;;;49.33;26.58;;;;;;;7.79;73.54;100465.69;5048386;28;20032;-50
2021/11/18 00:43:57;;;;;;;55.45;27.80;;;;;;;8.03;72.62;100459.50;5048274;28;20021;-50
2021/11/18 00:46:23;;;;;;;52.42;28.23;;;;;;;7.55;74.85;100455.09;5048003;28;20051;-49
2021/11/18 00:48:49;;;;;;;49.92;26.38;;;;;;;7.49;75.24;100451.28;5050712;28;20083;-47
2021/11/18 00:51:16;;;;;;;53.35;27.15;;;;;;;7.66;73.92;100457.41;5051461;28;20037;-49
2021/11/18 00:53:44;;;;;;;50.28;27.05;;;;;;;7.60;74.62;100453.59;5051454;28;20049;-47
2021/11/18 00:56:10;;;;;;;50.92;26.67;;;;;;;7.62;74.76;100459.56;5051262;28;20128;-47
2021/11/18 00:58:36;;;;;;;54.13;27.58;;;;;;;7.82;73.78;100454.75;5051270;28;20465;-47
2021/11/18 01:01:01;;;;;;;53.13;27.52;;;;;;;7.52;74.83;100455.41;5051490;28;20477;-47
2021/11/18 01:03:27;;;;;;;52.28;25.85;;;;;;;7.31;76.25;100455.91;5051661;28;20031;-49
2021/11/18 01:05:53;;;;;;;47.90;26.33;;;;;;;7.16;76.59;100453.94;5051270;28;20037;-47
2021/11/18 01:08:20;;;;;;;53.25;27.42;;;;;;;7.18;76.64;100451.13;5050886;28;20036;-50
2021/11/18 01:10:54;;;;;;;48.22;26.13;;;;;;;7.04;77.46;100449.94;5050869;28;20058;-47
2021/11/18 01:13:20;;;;;;;50.45;27.80;;;;;;;6.83;77.90;100423.94;5051126;28;20075;-47
2021/11/18 01:15:46;;;;;;;52.80;26.85;;;;;;;7.11;77.80;100452.75;5050660;28;20025;-50
2021/11/18 01:18:11;;;;;;;56.70;27.70;;;;;;;7.05;77.83;100463.00;5050510;28;20032;-47
2021/11/18 01:20:37;;;;;;;49.30;26.77;;;;;;;7.05;78.04;100463.00;5050866;28;20032;-50
2021/11/18 01:23:04;;;;;;;49.67;27.42;;;;;;;7.15;77.39;100462.03;5050872;28;20017;-47
2021/11/18 01:25:29;;;;;;;50.20;27.15;;;;;;;7.10;77.34;100459.03;5050682;28;20032;-50
2021/11/18 01:27:55;;;;;;;50.83;26.38;;;;;;;7.08;77.74;100448.59;5050820;28;20029;-49
2021/11/18 01:30:23;;;;;;;50.75;28.13;;;;;;;7.15;77.87;100449.63;5050958;28;20020;-48
2021/11/18 01:32:49;;;;;;;44.20;26.30;;;;;;;7.11;77.89;100448.28;5030897;28;20028;-47
2021/11/18 01:35:15;;;;;;;50.85;25.85;;;;;;;6.99;78.02;100442.50;5030462;28;20048;-47
2021/11/18 01:37:40;;;;;;;48.20;26.40;;;;;;;7.09;78.23;100450.28;5030912;28;20033;-46
2021/11/18 01:40:06;;;;;;;51.10;26.48;;;;;;;7.16;77.92;100442.50;5030815;28;20048;-48
2021/11/18 01:42:32;;;;;;;47.85;25.73;;;;;;;7.00;78.16;100432.72;5030914;28;20368;-47
2021/11/18 01:44:57;;;;;;;47.17;25.63;;;;;;;6.89;78.99;100441.78;5030675;28;20475;-47
2021/11/18 01:47:23;;;;;;;49.90;26.48;;;;;;;6.87;79.14;100442.94;5030314;28;20108;-49
2021/11/18 01:49:49;;;;;;;52.40;26.17;;;;;;;6.87;79.27;100441.13;5030188;28;20091;-46
2021/11/18 01:52:18;;;;;;;46.72;25.42;;;;;;;6.84;79.01;100433.53;5028834;28;20031;-47
2021/11/18 01:54:44;;;;;;;50.45;26.58;;;;;;;6.74;79.50;100438.13;5028717;28;20028;-47
2021/11/18 01:57:12;;;;;;;46.58;27.08;;;;;;;6.91;79.24;100439.84;5029986;28;20079;-47
2021/11/18 01:59:40;;;;;;;45.20;24.60;;;;;;;7.08;78.37;100439.84;5044660;28;20026;-47
2021/11/18 02:02:07;;;;;;;47.22;25.88;;;;;;;7.13;77.67;100448.13;5030380;28;20028;-49
2021/11/18 02:04:33;;;;;;;45.05;25.17;;;;;;;7.13;77.61;100443.66;5029635;28;20018;-47
2021/11/18 02:07:01;;;;;;;45.55;26.33;;;;;;;7.35;77.03;100449.28;5029564;28;20104;-46
2021/11/18 02:09:28;;;;;;;50.70;26.45;;;;;;;7.16;76.87;100453.94;5029744;28;20064;-47
2021/11/18 02:12:01;;;;;;;47.35;27.02;;;;;;;6.90;78.16;100454.03;5029681;28;20029;-47
2021/11/18 02:14:27;;;;;;;49.47;26.15;;;;;;;6.73;78.65;100460.28;5029484;28;20028;-47
2021/11/18 02:16:54;;;;;;;47.10;26.23;;;;;;;6.40;79.99;100462.81;5029686;28;20425;-47
2021/11/18 02:19:20;;;;;;;46.15;26.73;;;;;;;6.62;79.92;100464.88;5040766;28;20385;-48
2021/11/18 02:21:47;;;;;;;45.20;25.48;;;;;;;6.68;79.54;100463.41;5049410;28;20028;-47
2021/11/18 02:24:28;;;;;;;44.25;26.63;;;;;;;6.83;78.45;100460.97;5049648;28;20071;-47
2021/11/18 02:26:53;;;;;;;43.80;25.02;;;;;;;6.97;78.19;100464.81;5049296;28;20284;-49
2021/11/18 02:29:20;;;;;;;51.53;25.92;;;;;;;6.86;77.92;100460.66;5049565;28;20481;-47
2021/11/18 02:31:52;;;;;;;47.00;26.48;;;;;;;6.69;79.47;100467.72;5049412;28;20028;-47
2021/11/18 02:34:39;;;;;;;47.83;26.00;;;;;;;6.70;79.08;100463.25;5049505;28;20037;-49
2021/11/18 02:37:04;;;;;;;49.53;25.52;;;;;;;6.80;78.75;100461.31;5048107;28;20037;-46
2021/11/18 02:39:30;;;;;;;51.05;26.55;;;;;;;6.95;77.44;100462.34;5049156;28;20055;-48
2021/11/18 02:41:55;;;;;;;49.65;26.42;;;;;;;6.95;77.53;100459.69;5049604;28;20086;-49
2021/11/18 02:44:21;;;;;;;45.95;25.42;;;;;;;6.91;77.64;100463.66;5049342;28;20025;-47
2021/11/18 02:46:46;;;;;;;47.33;25.48;;;;;;;6.62;77.73;100462.22;5049094;28;20029;-46
2021/11/18 02:49:11;;;;;;;49.35;26.20;;;;;;;6.64;77.97;100457.63;5049259;28;20028;-47
2021/11/18 02:51:37;;;;;;;52.05;26.50;;;;;;;6.34;79.40;100466.91;5049301;28;20021;-47
2021/11/18 02:54:02;;;;;;;49.13;26.00;;;;;;;6.33;78.59;100467.91;5049149;28;20718;-49
2021/11/18 02:56:29;;;;;;;44.92;25.08;;;;;;;6.44;77.79;100464.97;5049265;28;20032;-49
2021/11/18 02:58:55;;;;;;;48.35;26.08;;;;;;;6.30;78.31;100462.09;5049755;28;20070;-49
2021/11/18 03:01:25;;;;;;;50.47;25.88;;;;;;;6.01;79.54;100463.25;5049352;28;20104;-48
2021/11/18 03:03:51;;;;;;;52.83;26.75;;;;;;;6.15;79.77;100462.69;5049351;28;20101;-48
2021/11/18 03:06:17;;;;;;;49.38;26.27;;;;;;;5.90;79.55;100461.66;5049129;28;20168;-49
2021/11/18 03:08:43;;;;;;;51.20;27.15;;;;;;;6.08;79.62;100459.00;5048962;28;20033;-48
2021/11/18 03:11:09;;;;;;;47.60;26.75;;;;;;;6.43;79.83;100468.59;5048226;28;20041;-48
2021/11/18 03:13:34;;;;;;;45.10;25.77;;;;;;;6.71;78.31;100470.19;5049059;28;20048;-48
2021/11/18 03:16:00;;;;;;;51.10;28.17;;;;;;;6.21;77.99;100451.50;5049068;28;20040;-48
2021/11/18 03:18:26;;;;;;;47.00;26.38;;;;;;;6.03;78.21;100453.38;5047490;28;20029;-48
2021/11/18 03:20:53;;;;;;;52.80;27.83;;;;;;;5.85;81.37;100463.97;5048987;28;20079;-48
2021/11/18 03:23:20;;;;;;;51.78;27.33;;;;;;;5.91;80.98;100465.16;5047659;28;20013;-38
2021/11/18 03:25:47;;;;;;;52.60;28.70;;;;;;;6.16;81.01;100466.16;5049019;28;20096;-38
2021/11/18 03:28:13;;;;;;;49.17;28.27;;;;;;;6.68;79.51;100454.63;5049189;28;20024;-38
2021/11/18 03:30:41;;;;;;;51.40;28.42;;;;;;;6.35;78.91;100458.00;5048911;28;20021;-38
2021/11/18 03:33:21;;;;;;;53.05;27.90;;;;;;;6.44;78.50;100464.97;5048860;28;20139;-38
2021/11/18 03:35:47;;;;;;;50.92;27.45;;;;;;;5.99;79.04;100458.13;5048856;28;20076;-38
2021/11/18 03:38:12;;;;;;;50.22;26.40;;;;;;;5.80;80.25;100456.50;5049112;28;20131;-37
2021/11/18 03:40:39;;;;;;;48.80;27.23;;;;;;;5.04;82.30;100413.00;5046441;28;20064;-37
2021/11/18 03:43:05;;;;;;;54.38;27.77;;;;;;;5.28;82.54;100459.06;5046669;28;20021;-37
2021/11/18 03:45:32;;;;;;;55.95;29.48;;;;;;;5.32;82.77;100447.22;5048745;28;20334;-38
2021/11/18 03:47:58;;;;;;;53.83;29.20;;;;;;;5.47;83.21;100450.97;5047136;28;20071;-38
2021/11/18 03:50:24;;;;;;;54.20;28.52;;;;;;;5.36;83.58;100447.75;5049349;28;20060;-38
2021/11/18 03:52:49;;;;;;;59.72;28.80;;;;;;;5.35;83.22;100459.28;5049519;28;20048;-38
2021/11/18 03:55:15;;;;;;;52.45;27.60;;;;;;;5.37;82.36;100457.31;5048983;28;20461;-38
2021/11/18 03:57:41;;;;;;;48.15;26.80;;;;;;;5.38;81.76;100451.06;5049258;28;20028;-38
2021/11/18 04:00:09;;;;;;;53.30;27.98;;;;;;;5.34;81.61;100449.72;5047579;28;20128;-38
2021/11/18 04:02:34;;;;;;;53.25;27.25;;;;;;;5.10;82.45;100453.78;5049055;28;20125;-37
2021/11/18 04:05:00;;;;;;;48.67;26.08;;;;;;;5.07;82.03;100448.81;5048768;28;20033;-38
2021/11/18 04:07:27;;;;;;;46.15;27.33;;;;;;;5.16;81.70;100452.34;5048239;28;20033;-38
2021/11/18 04:09:53;;;;;;;55.65;28.75;;;;;;;5.03;82.78;100450.94;5047129;28;20108;-37
2021/11/18 04:12:18;;;;;;;57.83;28.10;;;;;;;5.03;82.58;100458.03;5048256;28;20104;-38
2021/11/18 04:14:44;;;;;;;56.67;28.52;;;;;;;4.96;82.93;100457.78;5048525;28;20377;-38
2021/11/18 04:17:09;;;;;;;50.35;27.75;;;;;;;4.96;83.91;100459.59;5048647;28;20110;-37
2021/11/18 04:19:35;;;;;;;54.45;28.73;;;;;;;4.84;84.16;100462.44;5047264;28;20025;-37
2021/11/18 04:22:00;;;;;;;58.72;29.92;;;;;;;4.88;83.85;100463.78;5050239;28;20025;-38
2021/11/18 04:24:28;;;;;;;57.63;28.65;;;;;;;4.83;83.98;100470.50;5052436;28;20437;-37
2021/11/18 04:26:54;;;;;;;52.78;27.60;;;;;;;4.86;83.93;100467.56;5051835;28;20033;-37
2021/11/18 04:29:27;;;;;;;47.45;27.48;;;;;;;4.91;82.80;100460.03;5052556;28;20059;-37
2021/11/18 04:31:56;;;;;;;58.22;29.25;;;;;;;5.02;83.26;100466.91;5051548;28;20032;-37
2021/11/18 04:34:21;;;;;;;56.60;28.40;;;;;;;4.85;83.79;100471.16;5052064;28;20048;-37
2021/11/18 04:36:47;;;;;;;54.03;28.17;;;;;;;4.73;84.13;100469.72;5052025;28;20029;-38
2021/11/18 04:39:12;;;;;;;53.28;27.92;;;;;;;4.81;84.03;100475.09;5050914;28;20032;-37
2021/11/18 04:41:38;;;;;;;53.45;28.67;;;;;;;4.77;83.86;100471.09;5052111;28;20079;-38
2021/11/18 04:44:04;;;;;;;56.33;28.58;;;;;;;4.86;83.38;100472.84;5052329;28;20032;-38
2021/11/18 04:46:29;;;;;;;57.92;28.10;;;;;;;4.84;82.60;100480.06;5051721;28;20629;-38
2021/11/18 04:48:57;;;;;;;47.95;26.85;;;;;;;4.72;83.35;100481.25;5052314;28;20025;-38
2021/11/18 04:51:23;;;;;;;52.42;27.33;;;;;;;4.67;83.63;100485.16;5052230;28;20529;-38
2021/11/18 04:53:48;;;;;;;54.83;28.35;;;;;;;4.62;83.99;100491.84;5051963;28;20063;-37
2021/11/18 04:56:15;;;;;;;57.97;28.88;;;;;;;4.53;83.71;100455.81;5052103;28;20028;-38
2021/11/18 04:58:40;;;;;;;57.78;29.00;;;;;;;4.66;83.14;100495.84;5051175;28;20040;-38
2021/11/18 05:01:06;;;;;;;58.78;27.38;;;;;;;4.55;83.73;100496.88;5051783;28;20162;-38
2021/11/18 05:03:32;;;;;;;56.85;29.40;;;;;;;4.55;83.88;100502.16;5051716;28;20025;-38
2021/11/18 05:05:57;;;;;;;54.85;27.17;;;;;;;4.57;83.43;100499.34;5051827;28;20040;-37
2021/11/18 05:08:23;;;;;;;56.35;28.23;;;;;;;4.48;83.96;100498.44;5051796;28;20063;-38
2021/11/18 05:10:50;;;;;;;56.45;28.25;;;;;;;4.49;83.58;100503.56;5052109;28;20523;-38
2021/11/18 05:13:15;;;;;;;57.45;29.00;;;;;;;4.52;83.66;100506.88;5051827;28;20380;-38
2021/11/18 05:15:42;;;;;;;54.40;27.17;;;;;;;4.49;83.77;100508.84;5051413;28;20670;-38
2021/11/18 05:18:07;;;;;;;51.30;26.58;;;;;;;4.40;84.05;100514.97;5051157;28;20036;-36
2021/11/18 05:20:33;;;;;;;60.55;28.27;;;;;;;4.42;83.74;100512.19;5051047;28;20021;-38
2021/11/18 05:22:59;;;;;;;60.03;28.95;;;;;;;4.50;83.54;100515.75;5051637;28;20441;-37
2021/11/18 05:25:26;;;;;;;55.55;29.42;;;;;;;4.64;82.95;100510.97;5051230;28;20075;-36
2021/11/18 05:27:51;;;;;;;52.97;26.50;;;;;;;4.49;83.58;100518.53;5051244;28;20055;-38
2021/11/18 05:30:17;;;;;;;51.95;27.92;;;;;;;4.47;83.64;100520.47;5051351;28;20061;-40
2021/11/18 05:32:43;;;;;;;54.22;27.15;;;;;;;4.52;83.36;100520.06;5050269;28;20048;-38
2021/11/18 05:35:09;;;;;;;55.33;27.05;;;;;;;4.70;83.23;100521.78;5050377;28;20132;-37
2021/11/18 05:37:34;;;;;;;50.15;25.05;;;;;;;4.92;82.26;100518.91;5051179;28;20459;-39
2021/11/18 05:40:00;;;;;;;49.92;25.02;;;;;;;5.00;83.09;100511.88;5050555;28;20461;-38
2021/11/18 05:42:25;;;;;;;48.35;23.70;;;;;;;4.96;82.33;100522.91;5051427;28;20048;-38
2021/11/18 05:44:51;;;;;;;51.72;23.02;;;;;;;4.83;82.50;100521.41;5051034;28;20052;-40
2021/11/18 05:47:20;;;;;;;40.63;21.70;;;;;;;4.94;82.49;100530.13;5049518;28;20400;-38
2021/11/18 05:49:46;;;;;;;40.70;21.95;;;;;;;4.94;82.52;100530.13;5050659;28;20073;-38
2021/11/18 05:52:11;;;;;;;36.50;20.48;;;;;;;5.27;81.39;100532.16;5050308;28;20036;-39
2021/11/18 05:54:37;;;;;;;39.78;21.13;;;;;;;5.12;81.78;100546.81;5050803;28;20052;-38
2021/11/18 05:57:03;;;;;;;41.97;20.75;;;;;;;5.08;81.96;100548.94;5049139;28;20029;-37
2021/11/18 05:59:28;;;;;;;44.00;21.75;;;;;;;5.27;82.83;100547.13;5050711;28;20033;-37
2021/11/18 06:01:54;;;;;;;43.95;20.67;;;;;;;5.30;82.02;100549.47;5050403;28;20111;-37
2021/11/18 06:04:19;;;;;;;50.90;22.10;;;;;;;5.20;82.05;100546.91;5050581;28;20071;-38
2021/11/18 06:06:45;;;;;;;42.70;22.40;;;;;;;5.26;81.92;100556.03;5050424;28;20033;-39
2021/11/18 06:09:11;;;;;;;42.92;22.35;;;;;;;5.33;81.73;100550.97;5049556;28;20370;-38
2021/11/18 06:11:39;;;;;;;48.45;22.25;;;;;;;5.38;81.87;100557.47;5049410;28;20032;-38
2021/11/18 06:14:04;;;;;;;43.50;23.15;;;;;;;5.19;81.60;100528.59;5049323;28;20097;-38
2021/11/18 06:16:30;;;;;;;45.83;23.65;;;;;;;5.61;81.87;100563.13;5049624;28;20033;-38
2021/11/18 06:19:01;;;;;;;42.85;22.20;;;;;;;5.52;82.00;100571.13;5048250;28;20033;-37
2021/11/18 06:21:27;;;;;;;40.92;21.80;;;;;;;5.63;82.51;100566.44;5049549;28;20194;-37
2021/11/18 06:23:53;;;;;;;46.95;22.25;;;;;;;5.73;81.39;100570.84;5041724;28;20112;-38
2021/11/18 06:26:19;;;;;;;38.80;21.27;;;;;;;5.62;80.62;100575.38;5037870;28;20037;-38
2021/11/18 06:28:44;;;;;;;37.85;20.65;;;;;;;5.61;79.36;100583.44;5030384;28;20044;-38
2021/11/18 06:31:12;;;;;;;40.63;21.45;;;;;;;5.66;79.87;100586.47;5036996;28;20029;-39
2021/11/18 06:33:37;;;;;;;46.65;22.75;;;;;;;5.56;80.52;100588.34;5049190;28;20036;-38
2021/11/18 06:36:03;;;;;;;45.67;25.00;;;;;;;5.61;82.22;100584.25;5049656;28;20053;-39
2021/11/18 06:38:29;;;;;;;49.42;24.40;;;;;;;6.50;80.21;100589.63;5047998;28;20051;-37
2021/11/18 06:40:54;;;;;;;41.53;22.65;;;;;;;6.08;79.24;100591.16;5049351;28;20454;-37
2021/11/18 06:43:20;;;;;;;40.13;21.80;;;;;;;5.78;79.68;100582.59;5049727;28;20034;-37
2021/11/18 06:45:46;;;;;;;42.85;21.98;;;;;;;5.80;79.38;100588.56;5047983;28;20389;-38
2021/11/18 06:48:20;;;;;;;40.38;20.33;;;;;;;5.52;79.89;100584.34;5047675;28;20044;-38
2021/11/18 06:50:46;;;;;;;35.65;20.02;;;;;;;5.46;79.79;100594.53;5048172;28;20025;-37
2021/11/18 06:53:12;;;;;;;40.17;20.20;;;;;;;5.57;79.35;100593.47;5048124;28;20047;-37
2021/11/18 06:55:38;;;;;;;38.38;19.80;;;;;;;5.53;79.02;100588.66;5046708;28;20079;-37
2021/11/18 06:58:03;;;;;;;33.88;18.95;;;;;;;5.57;79.22;100584.72;5048329;28;20597;-38
2021/11/18 07:00:29;;;;;;;33.35;18.15;;;;;;;5.54;79.09;100585.88;5048924;28;20104;-38
2021/11/18 07:02:54;;;;;;;28.95;16.92;;;;;;;5.43;79.92;100586.91;5049519;28;20150;-39
2021/11/18 07:05:20;;;;;;;36.55;18.35;;;;;;;5.46;79.74;100580.47;5049439;28;20016;-39
2021/11/18 07:07:45;;;;;;;33.05;17.58;;;;;;;5.64;79.68;100586.63;5049257;28;20024;-39
2021/11/18 07:10:11;;;;;;;35.08;18.35;;;;;;;6.00;77.95;100583.16;5049116;28;20377;-39
2021/11/18 07:12:36;;;;;;;43.13;21.13;;;;;;;6.13;77.47;100575.66;5049144;28;20071;-38
2021/11/18 07:15:04;;;;;;;39.22;20.67;;;;;;;6.38;76.36;100574.00;5047674;28;20599;-38
2021/11/18 07:17:31;;;;;;;36.72;20.00;;;;;;;6.48;76.79;100573.09;5049520;28;20029;-38
2021/11/18 07:19:56;;;;;;;38.78;20.65;;;;;;;6.98;75.75;100570.50;5049398;28;20107;-39
2021/11/18 07:22:22;;;;;;;40.28;20.50;;;;;;;7.35;74.43;100564.00;5048951;28;20487;-38
2021/11/18 07:24:48;;;;;;;41.63;20.25;;;;;;;7.54;72.55;100554.06;5048824;28;20450;-38
2021/11/18 07:27:13;;;;;;;35.67;19.45;;;;;;;7.59;73.57;100557.06;5048340;28;20028;-38
2021/11/18 07:29:38;;;;;;;36.95;20.30;;;;;;;8.14;71.75;100553.75;5048796;28;20334;-37
2021/11/18 07:32:04;;;;;;;38.15;19.77;;;;;;;8.39;70.46;100556.34;5048822;28;20039;-37
2021/11/18 07:34:30;;;;;;;41.67;20.27;;;;;;;8.57;69.10;100554.38;5048548;28;20373;-38
2021/11/18 07:36:55;;;;;;;44.38;21.35;;;;;;;8.85;67.74;100553.91;5049657;28;20029;-39
2021/11/18 07:39:24;;;;;;;41.22;20.77;;;;;;;9.14;67.46;100550.66;5049634;28;20389;-39
2021/11/18 07:41:50;;;;;;;40.45;21.10;;;;;;;9.54;66.16;100537.28;5049477;28;20025;-38
2021/11/18 07:44:16;;;;;;;36.08;19.98;;;;;;;9.77;64.94;100543.41;5049322;28;20025;-39
2021/11/18 07:46:41;;;;;;;35.63;18.55;;;;;;;10.06;63.63;100543.66;5049439;28;20400;-38
2021/11/18 07:49:07;;;;;;;32.53;18.80;;;;;;;10.14;63.25;100543.59;5049595;28;20143;-37
2021/11/18 07:51:33;;;;;;;32.15;17.55;;;;;;;10.30;62.32;100545.25;5049282;28;20592;-37
2021/11/18 07:53:59;;;;;;;34.97;18.02;;;;;;;10.43;61.45;100540.16;5047546;28;20507;-38
2021/11/18 07:56:25;;;;;;;32.75;17.95;;;;;;;10.73;60.51;100542.81;5050829;28;20108;-38
2021/11/18 07:58:51;;;;;;;27.30;16.30;;;;;;;10.97;60.25;100549.69;5055274;28;20426;-37
2021/11/18 08:01:16;;;;;;;30.58;16.45;;;;;;;11.05;59.03;100541.56;5055296;28;20662;-37
2021/11/18 08:03:42;;;;;;;28.65;16.73;;;;;;;10.88;59.60;100551.63;5055368;28;20049;-47
2021/11/18 08:06:10;;;;;;;30.17;17.25;;;;;;;10.84;60.24;100547.66;5055277;28;20104;-47
2021/11/18 08:08:43;;;;;;;30.05;17.17;;;;;;;11.02;59.77;100549.09;5053567;28;20036;-50
2021/11/18 08:11:08;;;;;;;29.30;16.80;;;;;;;11.03;59.28;100554.25;5055406;28;20048;-47
2021/11/18 08:13:34;;;;;;;30.60;17.45;;;;;;;11.27;58.52;100545.13;5055419;28;20398;-48
2021/11/18 08:15:59;;;;;;;29.42;18.40;;;;;;;11.68;57.38;100539.16;5055463;28;20063;-50
2021/11/18 08:18:26;;;;;;;29.80;16.63;;;;;;;11.59;56.98;100545.63;5054764;28;20551;-47
2021/11/18 08:20:52;;;;;;;27.73;15.80;;;;;;;11.71;57.05;100552.13;5052444;28;20040;-48
2021/11/18 08:23:17;;;;;;;23.92;15.77;;;;;;;11.77;55.93;100555.03;5054919;28;20020;-48
2021/11/18 08:25:42;;;;;;;28.08;15.27;;;;;;;11.91;56.05;100556.81;5055685;28;20017;-47
2021/11/18 08:28:08;;;;;;;26.30;14.88;;;;;;;12.09;55.07;100556.38;5054697;28;20031;-50
2021/11/18 08:30:34;;;;;;;24.58;15.10;;;;;;;12.12;55.86;100559.44;5054017;28;20373;-48
2021/11/18 08:33:01;;;;;;;27.95;15.63;;;;;;;12.05;56.05;100558.59;5054090;28;20448;-47
2021/11/18 08:35:31;;;;;;;28.17;15.15;;;;;;;11.84;56.18;100553.22;5053540;28;20045;-48
2021/11/18 08:38:03;;;;;;;;;;;;;;;11.99;56.03;100562.00;5053390;28;20024;-47
2021/11/18 08:40:30;;;;;;;25.95;15.35;;;;;;;12.16;55.69;100548.41;5055021;28;19931;-47
2021/11/18 08:42:55;;;;;;;29.55;15.10;;;;;;;12.26;55.49;100556.88;5055410;28;20154;-47
2021/11/18 08:45:22;;;;;;;25.15;15.65;;;;;;;12.24;55.08;100559.75;5055278;28;20166;-47
2021/11/18 08:47:48;;;;;;;32.65;16.58;;;;;;;12.23;55.15;100554.59;5054997;28;20017;-50
2021/11/18 08:50:15;;;;;;;26.90;16.52;;;;;;;12.49;54.86;100552.13;5053669;28;20127;-47
2021/11/18 08:52:40;;;;;;;29.00;16.23;;;;;;;12.66;54.59;100554.44;5055109;28;20025;-50
2021/11/18 08:55:09;;;;;;;28.02;17.38;;;;;;;12.76;54.13;100554.94;5054895;28;20120;-47
2021/11/18 08:57:35;;;;;;;28.25;16.67;;;;;;;12.66;54.48;100557.97;5053345;28;20071;-50
2021/11/18 09:00:00;;;;;;;28.00;16.63;;;;;;;12.60;54.20;100553.38;5055064;28;20104;-48
2021/11/18 09:02:27;;;;;;;25.50;17.23;;;;;;;12.52;54.60;100556.22;5055163;28;20104;-49
2021/11/18 09:04:53;;;;;;;30.95;18.15;;;;;;;12.54;55.00;100556.03;5055084;28;20025;-50
2021/11/18 09:07:19;;;;;;;27.55;16.98;;;;;;;12.61;54.47;100548.91;5054622;28;20059;-49
2021/11/18 09:09:45;;;;;;;32.88;19.83;;;;;;;12.79;53.95;100559.84;5050839;28;20425;-48
2021/11/18 09:12:10;;;;;;;26.67;17.42;;;;;;;12.62;54.66;100550.53;5051690;28;20033;-47
2021/11/18 09:14:36;;;;;;;25.60;16.55;;;;;;;12.81;53.41;100551.66;5051829;28;20025;-48
2021/11/18 09:17:03;;;;;;;28.30;16.63;;;;;;;12.58;54.38;100555.44;5050196;28;20029;-47
2021/11/18 09:19:30;;;;;;;24.02;15.55;;;;;;;12.86;54.10;100558.06;5051311;28;20040;-50
2021/11/18 09:21:56;;;;;;;29.33;16.92;;;;;;;12.83;53.25;100557.63;5050810;28;20417;-48
2021/11/18 09:24:24;;;;;;;27.45;15.23;;;;;;;12.79;53.18;100549.16;5050926;28;20013;-47
2021/11/18 09:26:53;;;;;;;23.92;14.30;;;;;;;12.97;53.38;100554.00;5050937;28;20441;-48
2021/11/18 09:29:19;;;;;;;22.17;14.47;;;;;;;13.05;51.99;100545.78;5049613;28;20029;-49
2021/11/18 09:31:44;;;;;;;25.27;15.52;;;;;;;13.05;52.38;100542.31;5050752;28;20089;-49
2021/11/18 09:34:10;;;;;;;24.15;14.98;;;;;;;12.90;51.66;100542.44;5049062;28;20373;-48
2021/11/18 09:36:35;;;;;;;23.15;15.07;;;;;;;13.03;52.49;100541.69;5050939;28;20045;-48
2021/11/18 09:39:01;;;;;;;24.50;14.52;;;;;;;12.42;54.42;100534.41;5050500;28;20025;-50
2021/11/18 09:41:26;;;;;;;23.42;15.13;;;;;;;12.83;53.33;100537.09;5050658;28;20032;-47
2021/11/18 09:44:01;;;;;;;25.13;15.10;;;;;;;13.02;52.30;100535.53;5050975;28;20035;-50
2021/11/18 09:46:42;;;;;;;23.55;14.32;;;;;;;13.09;51.28;100535.53;5049776;28;20025;-47
2021/11/18 09:49:14;;;;;;;24.70;14.40;;;;;;;12.96;51.96;100532.81;5050520;28;20025;-46
2021/11/18 09:51:43;;;;;;;24.65;14.15;;;;;;;13.13;51.54;100527.94;5049367;28;20055;-47
2021/11/18 09:54:30;;;;;;;21.45;14.25;;;;;;;13.36;50.61;100532.97;5049502;28;20025;-47
2021/11/18 09:57:17;;;;;;;22.27;13.23;;;;;;;13.34;50.98;100535.84;5049623;28;20029;-47
2021/11/18 10:00:00;;;;;;;22.60;13.27;;;;;;;13.64;49.44;100525.59;5050604;28;20052;-49
2021/11/18 10:02:28;;;;;;;23.42;14.48;;;;;;;13.25;51.20;100532.50;5033213;28;20056;-49
2021/11/18 10:05:00;;;;;;;20.83;14.15;;;;;;;13.17;51.48;100524.66;5050068;28;20082;-49
2021/11/18 10:07:49;;;;;;;25.50;14.18;;;;;;;13.18;51.28;100514.81;5031248;28;20481;-47
2021/11/18 10:10:49;;;;;;;23.25;13.80;;;;;;;13.20;51.77;100516.25;5044053;28;20038;-50
2021/11/18 10:13:39;;;;;;;20.02;13.05;;;;;;;13.58;51.04;100513.06;5046403;28;20044;-48
2021/11/18 10:16:26;;;;;;;19.30;12.47;;;;;;;13.60;49.95;100507.50;5047314;28;20116;-48
2021/11/18 10:19:01;;;;;;;21.10;13.00;;;;;;;13.51;49.66;100498.03;5047112;28;20279;-48
2021/11/18 10:21:31;;;;;;;22.58;13.20;;;;;;;13.43;50.54;100489.19;5025924;28;20087;-47
2021/11/18 10:24:00;;;;;;;24.38;13.45;;;;;;;13.47;50.91;100485.06;5050602;28;20107;-47
2021/11/18 10:26:32;;;;;;;21.02;13.38;;;;;;;13.37;50.75;100476.63;5050554;28;20500;-50
2021/11/18 10:29:00;;;;;;;20.20;12.95;;;;;;;13.49;50.86;100474.16;5049248;28;20442;-50
2021/11/18 10:31:49;;;;;;;23.13;13.02;;;;;;;13.32;50.74;100478.28;5049728;28;20104;-47
2021/11/18 10:34:28;;;;;;;23.63;13.73;;;;;;;13.27;50.40;100468.16;5049990;28;20120;-47
2021/11/18 10:37:09;;;;;;;19.48;13.32;;;;;;;13.26;51.06;100458.50;5049857;28;20033;-47
2021/11/18 10:39:52;;;;;;;22.33;14.25;;;;;;;13.20;50.98;100470.00;5049007;28;20032;-48
2021/11/18 10:42:31;;;;;;;23.42;14.43;;;;;;;13.07;51.15;100455.56;5049230;28;20083;-47
2021/11/18 10:45:02;;;;;;;22.33;13.50;;;;;;;12.99;51.98;100454.94;5049564;28;20048;-49
2021/11/18 10:47:30;;;;;;;21.77;13.40;;;;;;;13.04;51.33;100447.13;5049451;28;20116;-49
2021/11/18 10:50:05;;;;;;;24.02;14.20;;;;;;;12.93;52.11;100445.91;5049679;28;20036;-48
2021/11/18 10:52:41;;;;;;;25.33;14.55;;;;;;;13.07;51.43;100444.88;5049530;28;20033;-49
2021/11/18 10:55:21;;;;;;;23.52;13.38;;;;;;;13.16;51.67;100439.38;5049396;28;20033;-46
2021/11/18 10:58:07;;;;;;;24.63;14.63;;;;;;;12.80;52.14;100435.19;5049210;28;20482;-46
2021/11/18 11:00:41;;;;;;;23.85;13.68;;;;;;;13.03;51.47;100434.81;5049654;28;20185;-48
2021/11/18 11:03:20;;;;;;;21.00;13.38;;;;;;;12.96;51.42;100418.75;5049839;28;20044;-47
2021/11/18 11:05:45;;;;;;;22.02;14.10;;;;;;;12.84;51.99;100421.19;5049605;28;20025;-49
2021/11/18 11:08:25;;;;;;;28.55;14.23;;;;;;;13.00;51.03;100422.66;5049483;28;20024;-48
2021/11/18 11:10:55;;;;;;;23.05;12.85;;;;;;;12.91;51.31;100411.38;5048616;28;20156;-47
2021/11/18 11:14:02;;;;;;;20.48;12.73;;;;;;;13.16;51.03;100420.66;5015464;28;20090;-47
2021/11/18 11:17:04;;;;;;;21.50;13.18;;;;;;;13.10;51.01;100408.94;5015417;28;20064;-48